Time;durP1;ratioP1;P1;durP2;ratioP2;P2;SDS_P1;SDS_P2;PMS_P1;PMS_P2;Temp;Humidity;BMP_temperature;BMP_pressure;BME280_temperature;BME280_humidity;BME280_pressure;Samples;Min_cycle;Max_cycle;Signal;HPM_P1;HPM_P2
2021/12/23 00:01:41;;;;;;;53.22;20.77;;;;;;;;;;5053716;28;20033;-76
2021/12/23 00:04:09;;;;;;;49.25;18.50;;;;;;;;;;5054801;28;20438;-77
2021/12/23 00:06:34;;;;;;;46.85;18.63;;;;;;;;;;5054324;28;20432;-76
2021/12/23 00:09:00;;;;;;;52.20;19.58;;;;;;;;;;5054265;28;20036;-77
2021/12/23 00:11:29;;;;;;;51.00;20.48;;;;;;;;;;5055960;28;20060;-77
2021/12/23 00:14:03;;;;;;;54.45;22.50;;;;;;;;;;5055374;28;20028;-77
2021/12/23 00:16:54;;;;;;;54.05;19.92;;;;;;;;;;5071215;28;20032;-77
2021/12/23 00:19:36;;;;;;;46.88;19.90;;;;;;;;;;5040848;28;20040;-76
2021/12/23 00:24:47;;;;;;;55.97;20.55;;;;;;;;;;5054127;28;20079;-76
2021/12/23 00:27:14;;;;;;;46.97;17.85;;;;;;;;;;5054209;28;20029;-78
2021/12/23 00:29:40;;;;;;;69.07;24.63;;;;;;;;;;5054294;28;20072;-76
2021/12/23 00:32:08;;;;;;;60.63;20.98;;;;;;;;;;5054200;28;20045;-77
2021/12/23 00:34:34;;;;;;;53.97;21.80;;;;;;;;;;5037340;28;20048;-77
2021/12/23 00:37:01;;;;;;;59.83;21.45;;;;;;;;;;5055354;28;20017;-77
2021/12/23 00:39:28;;;;;;;44.25;17.73;;;;;;;;;;5066300;28;20444;-77
2021/12/23 00:41:55;;;;;;;50.97;21.48;;;;;;;;;;5053387;28;20064;-77
2021/12/23 00:44:20;;;;;;;46.42;19.88;;;;;;;;;;5053659;28;20365;-77
2021/12/23 00:46:46;;;;;;;49.45;19.50;;;;;;;;;;5053443;28;20036;-78
2021/12/23 00:49:11;;;;;;;45.92;18.95;;;;;;;;;;5053976;28;20036;-77
2021/12/23 00:51:37;;;;;;;47.00;18.73;;;;;;;;;;5053405;28;20025;-77
2021/12/23 00:54:05;;;;;;;43.45;17.40;;;;;;;;;;5053463;28;20028;-77
2021/12/23 00:56:35;;;;;;;41.88;16.83;;;;;;;;;;5053084;28;20033;-78
2021/12/23 00:59:01;;;;;;;40.83;17.27;;;;;;;;;;5054980;28;20028;-77
2021/12/23 01:01:27;;;;;;;38.83;16.27;;;;;;;;;;5046453;28;20076;-78
2021/12/23 01:03:52;;;;;;;42.33;17.77;;;;;;;;;;5053522;28;20028;-79
2021/12/23 01:06:18;;;;;;;42.88;17.48;;;;;;;;;;5053295;28;20106;-78
2021/12/23 01:08:43;;;;;;;45.35;19.08;;;;;;;;;;5053319;28;20035;-78
2021/12/23 01:11:10;;;;;;;54.70;21.50;;;;;;;;;;5052913;28;20037;-77
2021/12/23 01:13:37;;;;;;;42.33;17.98;;;;;;;;;;5052722;28;20426;-78
2021/12/23 01:16:13;;;;;;;49.53;19.83;;;;;;;;;;5052998;28;20128;-77
2021/12/23 01:18:43;;;;;;;43.42;17.98;;;;;;;;;;5053315;28;20028;-78
2021/12/23 01:21:18;;;;;;;41.70;16.50;;;;;;;;;;5058577;28;20124;-76
2021/12/23 01:23:46;;;;;;;40.08;15.63;;;;;;;;;;5055288;28;20176;-78
2021/12/23 01:26:17;;;;;;;38.63;15.63;;;;;;;;;;5052674;28;20455;-77
2021/12/23 01:28:42;;;;;;;33.60;14.45;;;;;;;;;;5053806;28;20436;-78
2021/12/23 01:31:09;;;;;;;30.95;13.48;;;;;;;;;;5052787;28;20033;-75
2021/12/23 01:33:35;;;;;;;40.42;15.93;;;;;;;;;;5053185;28;20357;-77
2021/12/23 01:36:00;;;;;;;41.75;16.25;;;;;;;;;;5053447;28;20029;-77
2021/12/23 01:38:26;;;;;;;35.97;15.35;;;;;;;;;;5053152;28;20150;-78
2021/12/23 01:40:51;;;;;;;37.13;14.55;;;;;;;;;;5052436;28;20448;-77
2021/12/23 01:43:20;;;;;;;37.50;15.35;;;;;;;;;;5065042;28;20019;-78
2021/12/23 01:45:47;;;;;;;36.53;15.65;;;;;;;;;;5054831;28;20029;-78
2021/12/23 01:48:13;;;;;;;37.90;14.68;;;;;;;;;;5052475;28;20045;-78
2021/12/23 01:50:39;;;;;;;33.65;13.45;;;;;;;;;;5036548;28;20029;-77
2021/12/23 01:53:05;;;;;;;33.38;14.07;;;;;;;;;;5052968;28;20085;-78
2021/12/23 01:55:30;;;;;;;34.33;14.48;;;;;;;;;;5053545;28;20029;-77
2021/12/23 01:57:57;;;;;;;34.00;13.85;;;;;;;;;;5054689;28;20047;-78
2021/12/23 02:00:27;;;;;;;32.95;13.60;;;;;;;;;;5053359;28;20033;-77
2021/12/23 02:02:53;;;;;;;31.38;12.63;;;;;;;;;;5037111;28;20033;-77
2021/12/23 02:05:18;;;;;;;35.08;13.45;;;;;;;;;;5060842;28;20021;-80
2021/12/23 02:07:44;;;;;;;36.92;14.77;;;;;;;;;;5056216;28;20040;-78
2021/12/23 02:10:09;;;;;;;36.03;13.52;;;;;;;;;;5069064;28;20033;-79
2021/12/23 02:12:35;;;;;;;33.90;14.57;;;;;;;;;;5052442;28;20029;-78
2021/12/23 02:15:00;;;;;;;36.53;14.68;;;;;;;;;;5052369;28;20167;-78
2021/12/23 02:17:26;;;;;;;34.38;13.98;;;;;;;;;;5053654;28;20116;-78
2021/12/23 02:19:54;;;;;;;34.55;14.43;;;;;;;;;;5052269;28;20037;-77
2021/12/23 02:22:20;;;;;;;38.85;15.80;;;;;;;;;;5052350;28;20032;-77
2021/12/23 02:24:45;;;;;;;38.75;16.25;;;;;;;;;;5052275;28;20029;-78
2021/12/23 02:27:11;;;;;;;38.40;16.77;;;;;;;;;;5056937;28;20420;-77
2021/12/23 02:29:37;;;;;;;47.97;16.77;;;;;;;;;;5057361;28;20033;-78
2021/12/23 02:32:02;;;;;;;50.50;17.15;;;;;;;;;;5056073;28;20414;-78
2021/12/23 02:34:28;;;;;;;38.65;17.52;;;;;;;;;;5056014;28;20407;-78
2021/12/23 02:36:55;;;;;;;40.17;17.55;;;;;;;;;;5056042;28;20025;-78
2021/12/23 02:39:21;;;;;;;40.60;16.45;;;;;;;;;;5055920;28;20032;-78
2021/12/23 02:41:47;;;;;;;43.03;16.77;;;;;;;;;;5055681;28;20045;-77
2021/12/23 02:44:13;;;;;;;41.95;16.90;;;;;;;;;;5055585;28;20041;-78
2021/12/23 02:46:38;;;;;;;46.00;19.02;;;;;;;;;;5057031;28;20025;-77
2021/12/23 02:49:04;;;;;;;38.75;15.95;;;;;;;;;;5065956;28;20032;-78
2021/12/23 02:51:29;;;;;;;41.47;17.85;;;;;;;;;;5072873;28;20112;-78
2021/12/23 02:53:55;;;;;;;38.72;16.17;;;;;;;;;;5056536;28;20452;-78
2021/12/23 02:56:20;;;;;;;43.25;17.33;;;;;;;;;;5056861;28;20064;-78
2021/12/23 02:58:46;;;;;;;38.70;15.85;;;;;;;;;;5055716;28;20467;-77
2021/12/23 03:01:12;;;;;;;38.58;15.95;;;;;;;;;;5055496;28;20465;-77
2021/12/23 03:03:37;;;;;;;37.95;15.63;;;;;;;;;;5072463;28;20037;-77
2021/12/23 03:06:03;;;;;;;52.53;22.52;;;;;;;;;;5056673;28;20444;-78
2021/12/23 03:08:32;;;;;;;43.70;16.75;;;;;;;;;;5072222;28;20037;-78
2021/12/23 03:10:58;;;;;;;40.95;16.63;;;;;;;;;;5063581;28;20368;-77
2021/12/23 03:13:24;;;;;;;43.78;17.00;;;;;;;;;;5055573;28;20024;-78
2021/12/23 03:15:49;;;;;;;38.22;15.32;;;;;;;;;;5055377;28;20404;-77
2021/12/23 03:18:14;;;;;;;33.38;14.73;;;;;;;;;;5071931;28;20033;-77
2021/12/23 03:20:40;;;;;;;35.08;14.38;;;;;;;;;;5055141;28;20033;-77
2021/12/23 03:23:05;;;;;;;37.50;15.18;;;;;;;;;;5054864;28;20060;-77
2021/12/23 03:25:31;;;;;;;33.58;14.23;;;;;;;;;;5055323;28;20087;-78
2021/12/23 03:27:57;;;;;;;37.95;15.73;;;;;;;;;;5055179;28;20033;-77
2021/12/23 03:30:22;;;;;;;40.30;15.70;;;;;;;;;;5063257;28;20345;-78
2021/12/23 03:32:48;;;;;;;40.00;15.50;;;;;;;;;;5055205;28;20071;-77
2021/12/23 03:35:13;;;;;;;39.97;16.77;;;;;;;;;;5054879;28;20451;-78
2021/12/23 03:37:39;;;;;;;39.60;16.33;;;;;;;;;;5071036;28;20044;-77
2021/12/23 03:40:05;;;;;;;48.00;17.10;;;;;;;;;;5054763;28;20040;-77
2021/12/23 03:42:31;;;;;;;41.40;16.95;;;;;;;;;;5038136;28;20049;-78
2021/12/23 03:44:56;;;;;;;36.67;15.73;;;;;;;;;;5054732;28;20039;-78
2021/12/23 03:47:21;;;;;;;38.40;16.52;;;;;;;;;;5055240;28;20029;-78
2021/12/23 03:49:47;;;;;;;37.13;16.45;;;;;;;;;;5062972;28;20028;-78
2021/12/23 03:52:13;;;;;;;43.65;17.13;;;;;;;;;;5060131;28;20418;-78
2021/12/23 03:54:38;;;;;;;44.17;16.63;;;;;;;;;;5055830;28;20115;-78
2021/12/23 03:57:04;;;;;;;43.00;16.50;;;;;;;;;;5071473;28;20407;-78
2021/12/23 03:59:29;;;;;;;51.22;18.50;;;;;;;;;;5054489;28;20036;-78
2021/12/23 04:01:55;;;;;;;49.60;17.70;;;;;;;;;;5055572;28;20036;-78
2021/12/23 04:04:21;;;;;;;45.08;18.40;;;;;;;;;;5054209;28;20036;-78
2021/12/23 04:06:47;;;;;;;44.80;18.58;;;;;;;;;;5054702;28;21101;-76
2021/12/23 04:09:12;;;;;;;44.85;18.20;;;;;;;;;;5055645;28;20021;-78
2021/12/23 04:11:38;;;;;;;50.50;20.50;;;;;;;;;;5078337;28;20029;-76
2021/12/23 04:14:03;;;;;;;49.47;19.38;;;;;;;;;;5054417;28;20031;-77
2021/12/23 04:16:29;;;;;;;54.10;21.02;;;;;;;;;;5054185;28;20035;-77
2021/12/23 04:18:55;;;;;;;56.28;21.40;;;;;;;;;;5053710;28;20033;-77
2021/12/23 04:21:20;;;;;;;61.63;22.80;;;;;;;;;;5053968;28;20032;-76
2021/12/23 04:23:46;;;;;;;59.97;22.90;;;;;;;;;;5055225;28;20387;-77
2021/12/23 04:26:12;;;;;;;58.55;24.48;;;;;;;;;;5070777;28;20129;-76
2021/12/23 04:28:46;;;;;;;58.55;23.00;;;;;;;;;;5054140;28;20063;-77
2021/12/23 04:31:13;;;;;;;58.28;24.00;;;;;;;;;;5055819;28;20447;-77
2021/12/23 04:33:39;;;;;;;58.22;25.20;;;;;;;;;;5053600;28;20031;-77
2021/12/23 04:36:05;;;;;;;60.30;24.67;;;;;;;;;;5053909;28;20123;-77
2021/12/23 04:38:30;;;;;;;54.05;23.80;;;;;;;;;;5053819;28;20067;-78
2021/12/23 04:40:56;;;;;;;56.92;22.67;;;;;;;;;;5060988;28;20044;-76
2021/12/23 04:43:21;;;;;;;57.42;21.90;;;;;;;;;;5067639;28;20036;-76
2021/12/23 04:45:47;;;;;;;57.00;23.02;;;;;;;;;;5072044;28;20024;-78
2021/12/23 04:48:12;;;;;;;54.88;22.10;;;;;;;;;;5069175;28;20108;-78
2021/12/23 04:50:38;;;;;;;59.92;24.13;;;;;;;;;;5057772;28;20376;-77
2021/12/23 04:53:03;;;;;;;59.67;24.95;;;;;;;;;;5069900;28;20033;-77
2021/12/23 04:55:30;;;;;;;56.47;23.42;;;;;;;;;;5062079;28;20567;-77
2021/12/23 04:57:56;;;;;;;55.85;25.55;;;;;;;;;;5053592;28;20025;-76
2021/12/23 05:00:22;;;;;;;63.22;27.60;;;;;;;;;;5053375;28;20431;-77
2021/12/23 05:02:47;;;;;;;70.20;30.77;;;;;;;;;;5053032;28;20037;-78
2021/12/23 05:05:13;;;;;;;70.60;29.88;;;;;;;;;;5053348;28;20021;-76
2021/12/23 05:07:38;;;;;;;80.00;32.45;;;;;;;;;;5040672;28;20020;-77
2021/12/23 05:10:08;;;;;;;94.65;37.30;;;;;;;;;;5057305;28;20029;-78
2021/12/23 05:12:42;;;;;;;95.33;38.07;;;;;;;;;;5052932;28;20104;-77
2021/12/23 05:15:11;;;;;;;92.90;38.53;;;;;;;;;;5053160;28;20268;-77
2021/12/23 05:17:37;;;;;;;120.45;44.53;;;;;;;;;;5052919;28;20074;-77
2021/12/23 05:20:04;;;;;;;93.45;37.50;;;;;;;;;;5052802;28;20033;-78
2021/12/23 05:22:29;;;;;;;90.60;36.30;;;;;;;;;;5053255;28;20452;-79
2021/12/23 05:24:55;;;;;;;91.88;35.50;;;;;;;;;;5052848;28;20025;-79
2021/12/23 05:27:20;;;;;;;95.25;38.55;;;;;;;;;;5053178;28;20452;-78
2021/12/23 05:29:46;;;;;;;95.57;37.38;;;;;;;;;;5054439;28;20075;-78
2021/12/23 05:32:12;;;;;;;79.43;35.50;;;;;;;;;;5053358;28;20082;-78
2021/12/23 05:34:37;;;;;;;88.43;35.25;;;;;;;;;;5052608;28;20451;-79
2021/12/23 05:37:03;;;;;;;94.97;39.38;;;;;;;;;;5052720;28;20025;-77
2021/12/23 05:39:29;;;;;;;89.45;36.95;;;;;;;;;;5036024;28;20083;-78
2021/12/23 05:41:54;;;;;;;84.32;36.53;;;;;;;;;;5053908;28;20534;-78
2021/12/23 05:44:20;;;;;;;82.88;36.60;;;;;;;;;;5052695;28;20040;-79
2021/12/23 05:46:45;;;;;;;81.60;35.67;;;;;;;;;;5068954;28;20040;-76
2021/12/23 05:49:11;;;;;;;94.28;39.05;;;;;;;;;;5070567;28;20144;-76
2021/12/23 05:51:36;;;;;;;96.88;38.00;;;;;;;;;;5054118;28;20056;-77
2021/12/23 05:54:05;;;;;;;89.40;38.10;;;;;;;;;;5055843;28;20111;-78
2021/12/23 05:56:31;;;;;;;94.03;37.78;;;;;;;;;;5052076;28;20102;-78
2021/12/23 05:58:58;;;;;;;80.38;33.80;;;;;;;;;;5039948;28;20064;-78
2021/12/23 06:01:23;;;;;;;91.97;35.65;;;;;;;;;;5053837;28;20478;-78
2021/12/23 06:03:49;;;;;;;93.50;38.63;;;;;;;;;;5054067;28;20025;-82
2021/12/23 06:06:15;;;;;;;154.85;59.70;;;;;;;;;;5055235;28;20037;-77
2021/12/23 06:08:41;;;;;;;141.77;55.55;;;;;;;;;;5055929;28;20040;-78
2021/12/23 06:11:09;;;;;;;129.18;48.47;;;;;;;;;;5058238;28;20032;-79
2021/12/23 06:13:35;;;;;;;129.82;43.28;;;;;;;;;;5073011;28;20033;-80
2021/12/23 06:16:14;;;;;;;104.57;38.88;;;;;;;;;;5057941;28;20464;-77
2021/12/23 06:18:43;;;;;;;96.97;35.40;;;;;;;;;;5051726;22;20407;-80
2021/12/23 06:21:08;;;;;;;97.15;35.53;;;;;;;;;;5032622;28;20052;-80
2021/12/23 06:23:35;;;;;;;103.32;39.33;;;;;;;;;;5014038;28;20033;-79
2021/12/23 06:26:01;;;;;;;96.03;38.08;;;;;;;;;;5032885;28;20033;-78
2021/12/23 06:28:28;;;;;;;101.32;37.05;;;;;;;;;;5038114;28;20029;-78
2021/12/23 06:31:09;;;;;;;91.75;32.97;;;;;;;;;;5021237;28;20552;-81
2021/12/23 06:33:44;;;;;;;101.05;39.47;;;;;;;;;;5048444;28;20041;-78
2021/12/23 06:36:13;;;;;;;118.75;39.72;;;;;;;;;;5044822;28;20087;-81
2021/12/23 06:38:42;;;;;;;99.43;38.03;;;;;;;;;;5032454;28;20440;-81
2021/12/23 06:41:08;;;;;;;120.07;40.63;;;;;;;;;;5017383;28;20037;-79
2021/12/23 06:43:37;;;;;;;144.20;50.38;;;;;;;;;;5031684;28;20583;-80
2021/12/23 06:46:55;;;;;;;115.40;44.03;;;;;;;;;;5049188;28;20033;-82
2021/12/23 06:49:21;;;;;;;116.35;44.25;;;;;;;;;;5012847;28;20029;-83
2021/12/23 06:51:47;;;;;;;107.78;42.65;;;;;;;;;;5033328;28;20029;-78
2021/12/23 06:54:17;;;;;;;110.50;43.17;;;;;;;;;;5030128;28;20028;-79
2021/12/23 06:56:51;;;;;;;125.80;45.08;;;;;;;;;;5032122;28;20085;-83
2021/12/23 06:59:17;;;;;;;114.10;41.28;;;;;;;;;;5033145;28;20028;-81
2021/12/23 07:01:46;;;;;;;129.65;50.67;;;;;;;;;;5029521;28;20132;-82
2021/12/23 07:04:52;;;;;;;100.82;41.25;;;;;;;;;;5030911;28;20035;-81
2021/12/23 07:07:40;;;;;;;119.30;41.78;;;;;;;;;;5026304;28;20393;-78
2021/12/23 07:10:22;;;;;;;140.75;56.45;;;;;;;;;;5033445;28;20145;-83
2021/12/23 07:12:51;;;;;;;162.00;66.50;;;;;;;;;;5047523;28;20029;-78
2021/12/23 07:15:16;;;;;;;109.13;45.47;;;;;;;;;;5037058;28;20079;-77
2021/12/23 07:17:47;;;;;;;104.15;42.03;;;;;;;;;;5030914;28;20038;-79
2021/12/23 07:20:13;;;;;;;100.35;39.10;;;;;;;;;;5026598;28;20460;-78
2021/12/23 07:22:42;;;;;;;91.13;35.95;;;;;;;;;;5024868;28;20048;-78
2021/12/23 07:28:26;;;;;;;89.80;34.38;;;;;;;;;;5058784;22;20064;-81
2021/12/23 07:31:02;;;;;;;119.30;46.38;;;;;;;;;;5035359;28;20111;-81
2021/12/23 07:33:48;;;;;;;113.65;41.20;;;;;;;;;;5034631;28;20551;-83
2021/12/23 07:36:41;;;;;;;132.25;45.60;;;;;;;;;;5011705;28;20269;-82
2021/12/23 07:39:23;;;;;;;;;;;;;;;;;;;;;
2021/12/23 07:42:06;;;;;;;138.57;44.80;;;;;;;;;;5015180;28;20056;-81
2021/12/23 07:44:33;;;;;;;102.95;35.65;;;;;;;;;;5010173;28;20022;-79
2021/12/23 07:47:02;;;;;;;104.85;35.63;;;;;;;;;;5010312;28;20053;-81
2021/12/23 07:49:27;;;;;;;139.23;40.85;;;;;;;;;;5019914;28;20032;-79
2021/12/23 07:51:54;;;;;;;143.52;44.13;;;;;;;;;;5016089;28;20124;-79
2021/12/23 07:54:22;;;;;;;73.60;27.90;;;;;;;;;;5029184;28;20021;-80
2021/12/23 08:00:10;;;;;;;71.32;26.75;;;;;;;;;;5046296;22;20115;-77
2021/12/23 08:02:36;;;;;;;71.72;25.15;;;;;;;;;;5028750;28;20071;-79
2021/12/23 08:05:02;;;;;;;85.40;31.13;;;;;;;;;;5062157;28;20033;-77
2021/12/23 08:07:28;;;;;;;75.97;28.52;;;;;;;;;;5060942;28;20029;-80
2021/12/23 08:09:54;;;;;;;88.20;32.10;;;;;;;;;;5066448;28;20114;-78
2021/12/23 08:12:19;;;;;;;65.07;26.95;;;;;;;;;;5049067;28;20106;-78
2021/12/23 08:14:45;;;;;;;78.05;28.35;;;;;;;;;;5027707;28;20032;-79
2021/12/23 08:17:13;;;;;;;76.68;27.10;;;;;;;;;;5055535;28;20040;-79
2021/12/23 08:19:39;;;;;;;63.50;24.50;;;;;;;;;;5047917;28;20024;-78
2021/12/23 08:22:06;;;;;;;70.00;26.35;;;;;;;;;;5047843;28;20436;-79
2021/12/23 08:24:31;;;;;;;70.35;27.92;;;;;;;;;;5030435;28;20085;-76
2021/12/23 08:26:57;;;;;;;82.03;27.70;;;;;;;;;;5030072;28;20029;-76
2021/12/23 08:29:23;;;;;;;69.57;25.20;;;;;;;;;;5067091;28;20037;-77
2021/12/23 08:31:53;;;;;;;55.45;21.95;;;;;;;;;;5048255;28;20039;-77
2021/12/23 08:34:23;;;;;;;66.45;27.23;;;;;;;;;;5046935;28;20128;-77
2021/12/23 08:36:48;;;;;;;72.28;25.55;;;;;;;;;;5047892;28;20415;-77
2021/12/23 08:39:15;;;;;;;72.68;25.83;;;;;;;;;;5047137;28;20031;-77
2021/12/23 08:41:40;;;;;;;71.35;26.77;;;;;;;;;;5046663;28;20375;-76
2021/12/23 08:44:06;;;;;;;64.32;24.85;;;;;;;;;;5064219;28;20041;-77
2021/12/23 08:46:33;;;;;;;81.82;31.13;;;;;;;;;;5060705;28;20029;-77
2021/12/23 08:48:58;;;;;;;85.70;29.95;;;;;;;;;;5054668;28;20556;-77
2021/12/23 08:51:24;;;;;;;77.15;29.05;;;;;;;;;;5034881;28;20033;-77
2021/12/23 08:53:49;;;;;;;72.80;27.30;;;;;;;;;;5047415;28;20115;-80
2021/12/23 08:56:15;;;;;;;78.28;28.67;;;;;;;;;;5064124;28;20031;-78
2021/12/23 08:58:42;;;;;;;73.00;28.15;;;;;;;;;;5047882;28;20071;-78
2021/12/23 09:01:07;;;;;;;75.57;27.85;;;;;;;;;;5029728;28;20106;-77
2021/12/23 09:03:33;;;;;;;70.25;27.27;;;;;;;;;;5049609;28;20467;-77
2021/12/23 09:05:59;;;;;;;80.68;30.25;;;;;;;;;;5049328;28;20056;-77
2021/12/23 09:08:26;;;;;;;91.70;34.58;;;;;;;;;;5034517;28;20056;-77
2021/12/23 09:10:52;;;;;;;83.93;29.67;;;;;;;;;;5056123;28;20115;-78
2021/12/23 09:13:18;;;;;;;80.13;31.02;;;;;;;;;;5047863;28;20025;-77
2021/12/23 09:15:44;;;;;;;79.30;32.30;;;;;;;;;;5064197;28;20071;-77
2021/12/23 09:18:09;;;;;;;71.40;28.88;;;;;;;;;;5065697;28;20455;-77
2021/12/23 09:20:36;;;;;;;79.68;30.02;;;;;;;;;;5033289;28;20037;-77
2021/12/23 09:23:01;;;;;;;102.47;34.15;;;;;;;;;;5068063;28;20090;-77
2021/12/23 09:25:32;;;;;;;84.22;32.25;;;;;;;;;;5034611;28;20464;-78
2021/12/23 09:28:19;;;;;;;83.38;29.48;;;;;;;;;;5052154;28;20028;-79
2021/12/23 09:33:29;;;;;;;80.55;31.90;;;;;;;;;;5053544;28;20467;-78
2021/12/23 09:35:55;;;;;;;64.85;23.48;;;;;;;;;;5052986;28;20031;-78
2021/12/23 09:38:26;;;;;;;80.07;30.13;;;;;;;;;;5052623;28;20120;-79
2021/12/23 09:40:52;;;;;;;102.97;38.60;;;;;;;;;;5068583;28;20041;-78
2021/12/23 09:43:18;;;;;;;106.38;37.42;;;;;;;;;;5052836;28;20057;-79
2021/12/23 09:45:46;;;;;;;93.10;34.58;;;;;;;;;;5036335;28;20040;-79
2021/12/23 09:48:12;;;;;;;101.85;37.15;;;;;;;;;;5054217;28;20029;-80
2021/12/23 09:50:39;;;;;;;145.65;50.60;;;;;;;;;;5059308;28;20467;-79
2021/12/23 09:53:05;;;;;;;182.48;65.43;;;;;;;;;;5054133;28;20036;-80
2021/12/23 09:55:30;;;;;;;90.43;31.52;;;;;;;;;;5052616;28;20029;-79
2021/12/23 09:57:57;;;;;;;92.35;34.35;;;;;;;;;;5052821;28;20120;-79
2021/12/23 10:00:26;;;;;;;100.25;36.42;;;;;;;;;;5052367;28;20146;-78
2021/12/23 10:02:51;;;;;;;98.30;35.92;;;;;;;;;;5053718;28;20030;-79
2021/12/23 10:05:19;;;;;;;97.55;37.92;;;;;;;;;;5052619;28;20036;-78
2021/12/23 10:07:46;;;;;;;103.38;38.33;;;;;;;;;;5052534;28;20020;-79
2021/12/23 10:10:21;;;;;;;107.57;39.17;;;;;;;;;;5053400;28;20096;-79
2021/12/23 10:26:49;;;;;;;102.28;39.40;;;;;;;;;;5053675;28;20368;-79
2021/12/23 10:33:16;;;;;;;97.13;36.97;;;;;;;;;;5067972;28;20075;-79
2021/12/23 10:38:15;;;;;;;106.57;39.90;;;;;;;;;;5053283;28;20033;-79
2021/12/23 10:40:45;;;;;;;100.00;36.95;;;;;;;;;;5052109;28;20025;-78
2021/12/23 10:43:43;;;;;;;;;;;;;;;;;;5052637;28;20050;-78
2021/12/23 10:46:22;;;;;;;80.60;30.08;;;;;;;;;;5031490;28;19908;-78
2021/12/23 10:49:39;;;;;;;87.50;34.53;;;;;;;;;;5062567;28;20001;-78
2021/12/23 10:52:14;;;;;;;90.60;35.95;;;;;;;;;;5062226;28;20036;-79
2021/12/23 11:00:23;;;;;;;95.28;36.95;;;;;;;;;;5055675;28;20059;-79
2021/12/23 11:03:03;;;;;;;97.70;37.70;;;;;;;;;;5056612;28;20436;-78
2021/12/23 11:05:34;;;;;;;96.68;37.00;;;;;;;;;;5056454;28;20025;-78
2021/12/23 11:08:12;;;;;;;;;;;;;;;;;;5058300;28;20183;-79
2021/12/23 11:10:59;;;;;;;84.32;31.08;;;;;;;;;;5066310;28;19913;-78
2021/12/23 11:38:32;;;;;;;84.82;35.20;;;;;;;;;;5056152;28;20523;-78
2021/12/23 11:41:04;;;;;;;105.82;38.88;;;;;;;;;;5069044;28;20440;-79
2021/12/23 11:45:55;;;;;;;105.80;40.75;;;;;;;;;;5056442;28;20025;-80
2021/12/23 11:48:21;;;;;;;99.63;39.22;;;;;;;;;;5055700;28;20017;-79
2021/12/23 11:51:07;;;;;;;88.15;34.42;;;;;;;;;;5056034;28;20017;-79
2021/12/23 11:53:34;;;;;;;86.22;34.58;;;;;;;;;;5065677;28;20089;-80
2021/12/23 11:55:59;;;;;;;82.70;33.15;;;;;;;;;;5054603;28;20025;-79
2021/12/23 11:58:25;;;;;;;89.43;34.90;;;;;;;;;;5071117;28;20036;-78
2021/12/23 12:01:09;;;;;;;91.03;34.40;;;;;;;;;;5054318;28;20182;-79
2021/12/23 12:03:58;;;;;;;93.40;34.65;;;;;;;;;;5055317;28;20037;-79
2021/12/23 12:06:26;;;;;;;87.20;34.58;;;;;;;;;;5054405;28;20078;-79
2021/12/23 12:08:55;;;;;;;96.50;37.40;;;;;;;;;;5037909;28;20031;-79
2021/12/23 12:11:25;;;;;;;94.60;37.03;;;;;;;;;;5054126;28;20372;-80
2021/12/23 12:13:50;;;;;;;95.80;37.47;;;;;;;;;;5063957;28;20036;-80
2021/12/23 12:16:26;;;;;;;80.78;32.53;;;;;;;;;;5057361;28;20017;-80
2021/12/23 12:18:51;;;;;;;125.20;47.42;;;;;;;;;;5071000;28;20035;-77
2021/12/23 12:21:24;;;;;;;100.85;42.13;;;;;;;;;;5071151;28;20041;-79
2021/12/23 12:24:23;;;;;;;91.32;35.55;;;;;;;;;;5070183;28;20040;-78
2021/12/23 12:26:57;;;;;;;83.15;34.65;;;;;;;;;;5054714;28;20055;-78
2021/12/23 12:29:32;;;;;;;95.32;37.85;;;;;;;;;;5053935;28;20029;-78
2021/12/23 12:31:57;;;;;;;88.93;37.65;;;;;;;;;;5053849;28;20033;-80
2021/12/23 12:34:30;;;;;;;98.05;40.28;;;;;;;;;;5056451;28;20082;-80
2021/12/23 12:36:55;;;;;;;98.00;38.92;;;;;;;;;;5083100;28;20028;-79
2021/12/23 12:39:32;;;;;;;102.65;40.35;;;;;;;;;;5053747;28;20471;-77
2021/12/23 12:42:04;;;;;;;88.90;35.45;;;;;;;;;;5053579;28;20037;-78
2021/12/23 12:45:00;;;;;;;94.00;35.30;;;;;;;;;;5069619;28;20044;-78
2021/12/23 12:47:28;;;;;;;82.85;33.90;;;;;;;;;;5053553;28;20082;-78
2021/12/23 12:50:05;;;;;;;86.00;34.63;;;;;;;;;;5069864;28;20371;-77
2021/12/23 12:52:35;;;;;;;84.45;33.20;;;;;;;;;;5054629;28;20033;-78
2021/12/23 12:55:07;;;;;;;101.45;40.85;;;;;;;;;;5053478;28;20459;-78
2021/12/23 12:57:39;;;;;;;86.82;36.25;;;;;;;;;;5070161;28;20036;-78
2021/12/23 13:00:16;;;;;;;90.18;36.95;;;;;;;;;;5053191;28;20468;-78
2021/12/23 13:02:47;;;;;;;115.00;43.80;;;;;;;;;;5069574;28;20116;-77
2021/12/23 13:05:12;;;;;;;95.22;34.95;;;;;;;;;;5053542;28;20455;-78
2021/12/23 13:07:40;;;;;;;96.53;39.45;;;;;;;;;;5069857;28;20078;-78
2021/12/23 13:10:14;;;;;;;126.13;44.10;;;;;;;;;;5069073;28;20040;-78
2021/12/23 13:12:49;;;;;;;109.00;40.33;;;;;;;;;;5053030;28;20104;-78
2021/12/23 13:15:23;;;;;;;100.03;38.08;;;;;;;;;;5054314;28;20115;-78
2021/12/23 13:17:54;;;;;;;115.07;38.80;;;;;;;;;;5060637;28;20024;-77
2021/12/23 13:20:30;;;;;;;136.40;46.38;;;;;;;;;;5063914;28;20131;-77
2021/12/23 13:23:03;;;;;;;113.50;40.13;;;;;;;;;;5054262;28;20067;-77
2021/12/23 13:25:29;;;;;;;121.43;46.28;;;;;;;;;;5054175;28;20025;-78
2021/12/23 13:27:54;;;;;;;165.98;55.38;;;;;;;;;;5053220;28;20035;-78
2021/12/23 13:30:20;;;;;;;122.55;45.25;;;;;;;;;;5052947;28;20033;-79
2021/12/23 13:33:01;;;;;;;122.43;44.97;;;;;;;;;;5053022;28;20436;-78
2021/12/23 13:35:26;;;;;;;175.77;61.67;;;;;;;;;;5036671;28;20025;-77
2021/12/23 13:37:52;;;;;;;118.57;43.08;;;;;;;;;;5052660;28;20029;-78
2021/12/23 13:40:32;;;;;;;129.55;45.17;;;;;;;;;;5062336;28;20040;-78
2021/12/23 13:42:58;;;;;;;117.93;42.88;;;;;;;;;;5035961;28;20044;-77
2021/12/23 13:45:27;;;;;;;104.30;39.25;;;;;;;;;;5052219;28;20353;-77
2021/12/23 13:47:53;;;;;;;115.30;40.00;;;;;;;;;;5053918;28;20119;-77
2021/12/23 13:50:21;;;;;;;114.68;43.60;;;;;;;;;;5036475;28;20120;-77
2021/12/23 13:52:55;;;;;;;99.07;39.17;;;;;;;;;;5053443;28;20032;-78
2021/12/23 13:55:23;;;;;;;102.97;40.03;;;;;;;;;;5036221;28;20024;-77
2021/12/23 13:57:51;;;;;;;114.75;41.40;;;;;;;;;;5052806;28;20445;-78
2021/12/23 14:00:23;;;;;;;154.38;49.50;;;;;;;;;;5040485;28;20075;-78
2021/12/23 14:02:53;;;;;;;113.80;41.30;;;;;;;;;;5055833;28;20033;-78
2021/12/23 14:05:20;;;;;;;121.32;39.90;;;;;;;;;;5052920;28;20025;-78
2021/12/23 14:07:47;;;;;;;115.63;42.40;;;;;;;;;;5036006;28;20432;-79
2021/12/23 14:10:20;;;;;;;110.90;39.00;;;;;;;;;;5069457;28;20115;-78
2021/12/23 14:12:49;;;;;;;104.68;38.47;;;;;;;;;;5069080;28;20029;-77
2021/12/23 14:15:24;;;;;;;102.13;38.90;;;;;;;;;;5069020;28;20068;-78
2021/12/23 14:17:53;;;;;;;104.05;39.60;;;;;;;;;;5052447;28;20029;-77
2021/12/23 14:23:14;;;;;;;87.65;35.42;;;;;;;;;;5068136;28;20105;-77
2021/12/23 14:25:44;;;;;;;110.88;43.25;;;;;;;;;;5056496;28;20029;-77
2021/12/23 14:28:10;;;;;;;98.07;40.03;;;;;;;;;;5057131;28;20136;-79
2021/12/23 14:30:40;;;;;;;101.68;38.38;;;;;;;;;;5056703;28;20476;-78
2021/12/23 14:33:09;;;;;;;96.90;36.22;;;;;;;;;;5072768;28;20479;-78
2021/12/23 14:35:35;;;;;;;95.82;36.25;;;;;;;;;;5072553;28;20079;-78
2021/12/23 14:38:01;;;;;;;96.25;37.88;;;;;;;;;;5072917;28;20398;-80
2021/12/23 14:40:27;;;;;;;103.18;43.22;;;;;;;;;;5056140;28;20029;-78
2021/12/23 14:43:03;;;;;;;111.10;44.47;;;;;;;;;;5075402;28;20028;-78
2021/12/23 14:45:29;;;;;;;97.57;39.35;;;;;;;;;;5058818;28;20464;-77
2021/12/23 14:48:09;;;;;;;102.90;38.58;;;;;;;;;;5057140;28;20033;-77
2021/12/23 14:50:49;;;;;;;107.18;39.47;;;;;;;;;;5056961;28;20032;-77
2021/12/23 14:53:19;;;;;;;129.20;43.05;;;;;;;;;;5055721;28;20043;-77
2021/12/23 14:55:52;;;;;;;98.93;39.42;;;;;;;;;;5072261;28;20017;-77
2021/12/23 14:58:18;;;;;;;122.70;44.53;;;;;;;;;;5056934;28;20068;-77
2021/12/23 15:00:44;;;;;;;117.43;44.65;;;;;;;;;;5072035;28;20076;-77
2021/12/23 15:03:14;;;;;;;127.00;47.22;;;;;;;;;;5056915;28;20036;-80
2021/12/23 15:05:41;;;;;;;117.80;46.95;;;;;;;;;;5069800;28;20020;-79
2021/12/23 15:08:31;;;;;;;123.55;46.42;;;;;;;;;;5072217;28;20025;-78
2021/12/23 15:11:00;;;;;;;129.02;48.50;;;;;;;;;;5055395;28;20067;-78
2021/12/23 15:13:38;;;;;;;126.88;47.28;;;;;;;;;;5055204;28;20087;-78
2021/12/23 15:16:07;;;;;;;114.40;45.88;;;;;;;;;;5056533;28;20029;-79
2021/12/23 15:18:43;;;;;;;120.13;44.70;;;;;;;;;;5056453;28;20444;-79
2021/12/23 15:21:19;;;;;;;112.35;44.72;;;;;;;;;;5056364;28;20033;-77
2021/12/23 15:23:46;;;;;;;110.63;43.35;;;;;;;;;;5076223;28;20005;-77
2021/12/23 15:26:32;;;;;;;99.72;40.10;;;;;;;;;;5060032;28;20021;-78
2021/12/23 15:29:12;;;;;;;101.03;41.70;;;;;;;;;;5055462;28;20037;-77
2021/12/23 15:31:37;;;;;;;110.63;41.92;;;;;;;;;;5071019;28;20440;-77
2021/12/23 15:34:07;;;;;;;132.25;49.63;;;;;;;;;;5071761;28;20025;-80
2021/12/23 15:36:34;;;;;;;149.30;60.60;;;;;;;;;;5055099;28;20033;-77